Airfield :
LOGIN :

Register | Disclaimer

   EN    FR    IT 

 










Legend :    VFR   Marginal VFR   IFR   Intensive IFR   Very Intensive IFR
Visi :
Ceiling :
>= 8 km
>= 3000ft
5 to 8 km
1000 to 3000 ft
1500m to 5 km
500 to 1000 ft
800 to 1500m
200 to 500 ft
< 800m
< 200 ft
Symbols :   Thunderstorms  Fog  Heavy snow  Heavy precipitations  Wind > 20 kt
SIGMETs :     Misc.  Thunderstorms  Icing  Turbulence  Mountain Waves  Volcanic Ashes






- Airport Elevation : 1568 ft


ETSB - Büchel AB

CURRENT METAR :
  • 141820Z AUTO 07008KT 9999 // ////// 02/M00 Q1001 ///

EXPIRED METARs :
  • 141720Z AUTO 06006KT 9999 // ////// 02/M00 Q1001 ///
  • 141649Z 07006KT 9999 FEW040 BKN070 BKN130 03/00 Q1001 BLU FCST CANCEL
  • 141620Z 09005KT 9999 FEW040 BKN070 BKN130 04/00 Q1001 BLU BLU TEMPO WHT
  • 141520Z 11006KT 9999 FEW040 BKN070 BKN130 04/01 Q1001 BLU BLU TEMPO WHT

TAF AMD TAF ETSB
Valid from the 14 at 16:00 until the 15 at 00:00 UTC


141649Z 1416/1424 10006KT 9999 NSW FEW015 SCT050 BKN150
TEMPO 1416/1422 07008KT 9999 NSW SCT008 BKN020 BKN150
BECMG 1422/1424 06008KT 6000 NSW BKN008 BKN020 BKN150 CANCEL 1700 BY ETGL



MET'MAP, your aeronautical weather chart ! - Copyright ORBIFLY December 2007 - Disclaimer

ORBIFLY MET'MAP TEAM :

Programming & Development : Alexandra Zaïnal
Concept & Development : Baudouin d'Aumeries
Co-Development & Prog : Marc-Olivier Méhu
Technical & hardware support : Manuel Goepfert

Contact : metmap@orbifly.com




SOURCES & CREDITS :

   NOAA